| time (UTC) | temp F | wind direction | speed MPH | gust MPH | rain 1hr in | rain 24hr in | rain mn in | humidity % | barometer mb |
| 20260504211025 | 80 | 177 | 4.0 | 11.0 | 0.00 | 0.00 | 0.00 | 60 | 1008.6 |
| 20260504210524 | 80 | 232 | 4.0 | 12.0 | 0.00 | 0.00 | 0.00 | 61 | 1008.8 |
| 20260504210024 | 80 | 175 | 5.0 | 12.0 | 0.00 | 0.00 | 0.00 | 61 | 1008.9 |
| 20260504205523 | 80 | 204 | 5.0 | 15.0 | 0.00 | 0.00 | 0.00 | 61 | 1009.0 |
| 20260504205025 | 80 | 156 | 7.0 | 15.0 | 0.00 | 0.00 | 0.00 | 60 | 1009.0 |
| 20260504204534 | 80 | 182 | 6.0 | 15.0 | 0.00 | 0.00 | 0.00 | 60 | 1009.1 |
| 20260504204026 | 79 | 149 | 3.0 | 15.0 | 0.00 | 0.00 | 0.00 | 61 | 1009.1 |
| 20260504203520 | 79 | 183 | 8.0 | 15.0 | 0.00 | 0.00 | 0.00 | 60 | 1009.2 |
| 20260504203023 | 80 | 246 | 4.0 | 13.0 | 0.00 | 0.00 | 0.00 | 60 | 1009.3 |
| 20260504202519 | 79 | 227 | 6.0 | 13.0 | 0.00 | 0.00 | 0.00 | 61 | 1009.4 |
| 20260504202018 | 79 | 192 | 6.0 | 13.0 | 0.00 | 0.00 | 0.00 | 61 | 1009.4 |
| 20260504201518 | 79 | 150 | 3.0 | 11.0 | 0.00 | 0.00 | 0.00 | 62 | 1009.6 |
| 20260504201020 | 79 | 192 | 3.0 | 11.0 | 0.00 | 0.00 | 0.00 | 61 | 1009.6 |
| 20260504200517 | 79 | 163 | 4.0 | 11.0 | 0.00 | 0.00 | 0.00 | 61 | 1009.8 |
| 20260504200016 | 79 | 146 | 4.0 | 11.0 | 0.00 | 0.00 | 0.00 | 61 | 1009.8 |
| 20260504195516 | 80 | 139 | 4.0 | 11.0 | 0.00 | 0.00 | 0.00 | 61 | 1009.8 |
| 20260504195016 | 80 | 194 | 6.0 | 12.0 | 0.00 | 0.00 | 0.00 | 60 | 1009.8 |
| 20260504194514 | 80 | 223 | 4.0 | 11.0 | 0.00 | 0.00 | 0.00 | 60 | 1009.8 |
| 20260504194013 | 80 | 178 | 3.0 | 14.0 | 0.00 | 0.00 | 0.00 | 61 | 1009.8 |
| 20260504193512 | 79 | 192 | 6.0 | 14.0 | 0.00 | 0.00 | 0.00 | 61 | 1010.0 |
| 20260504193012 | 79 | 173 | 5.0 | 10.0 | 0.00 | 0.00 | 0.00 | 61 | 1010.1 |
| 20260504192511 | 79 | 155 | 4.0 | 11.0 | 0.00 | 0.00 | 0.00 | 61 | 1010.1 |
| 20260504192013 | 79 | 159 | 3.0 | 16.0 | 0.00 | 0.00 | 0.00 | 61 | 1010.2 |
| 20260504191511 | 79 | 146 | 8.0 | 16.0 | 0.00 | 0.00 | 0.00 | 60 | 1010.2 |
| 20260504191010 | 79 | 150 | 3.0 | 12.0 | 0.00 | 0.00 | 0.00 | 61 | 1010.2 |
| 20260504190509 | 79 | 186 | 4.0 | 12.0 | 0.00 | 0.00 | 0.00 | 61 | 1010.3 |
| 20260504190008 | 78 | 165 | 6.0 | 15.0 | 0.00 | 0.00 | 0.00 | 62 | 1010.2 |
| 20260504185508 | 79 | 150 | 6.0 | 15.0 | 0.00 | 0.00 | 0.00 | 61 | 1010.2 |
| 20260504185009 | 79 | 159 | 6.0 | 14.0 | 0.00 | 0.00 | 0.00 | 61 | 1010.3 |
| 20260504184506 | 79 | 204 | 4.0 | 17.0 | 0.00 | 0.00 | 0.00 | 61 | 1010.6 |
| 20260504184007 | 79 | 220 | 7.0 | 13.0 | 0.00 | 0.00 | 0.00 | 61 | 1010.8 |
| 20260504183507 | 79 | 184 | 6.0 | 13.0 | 0.00 | 0.00 | 0.00 | 61 | 1010.8 |
| 20260504183004 | 79 | 200 | 4.0 | 13.0 | 0.00 | 0.00 | 0.00 | 61 | 1010.8 |
| 20260504182503 | 79 | 223 | 4.0 | 14.0 | 0.00 | 0.00 | 0.00 | 62 | 1010.7 |
| 20260504182003 | 79 | 209 | 5.0 | 17.0 | 0.00 | 0.00 | 0.00 | 62 | 1010.9 |
| 20260504181506 | 78 | 178 | 6.0 | 17.0 | 0.00 | 0.00 | 0.00 | 63 | 1010.8 |
| 20260504181004 | 78 | 223 | 4.0 | 12.0 | 0.00 | 0.00 | 0.00 | 62 | 1011.0 |
| 20260504180601 | 78 | 134 | 5.0 | 12.0 | 0.00 | 0.00 | 0.00 | 62 | 1011.0 |
| 20260504180100 | 79 | 151 | 4.0 | 12.0 | 0.00 | 0.00 | 0.00 | 62 | 1011.2 |
| 20260504175559 | 79 | 146 | 4.0 | 12.0 | 0.00 | 0.00 | 0.00 | 62 | 1011.2 |
| 20260504175058 | 78 | 172 | 5.0 | 11.0 | 0.00 | 0.00 | 0.00 | 62 | 1011.2 |
| 20260504174614 | 78 | 150 | 6.0 | 11.0 | 0.00 | 0.00 | 0.00 | 62 | 1011.4 |
| 20260504174056 | 78 | 193 | 6.0 | 11.0 | 0.00 | 0.00 | 0.00 | 61 | 1011.5 |
| 20260504173555 | 78 | 138 | 5.0 | 12.0 | 0.00 | 0.00 | 0.00 | 61 | 1011.5 |
| 20260504173054 | 77 | 244 | 4.0 | 12.0 | 0.00 | 0.00 | 0.00 | 63 | 1011.5 |
| 20260504172553 | 77 | 148 | 5.0 | 16.0 | 0.00 | 0.00 | 0.00 | 63 | 1011.7 |
| 20260504172053 | 77 | 196 | 6.0 | 16.0 | 0.00 | 0.00 | 0.00 | 62 | 1011.8 |
| 20260504171554 | 77 | 220 | 6.0 | 17.0 | 0.00 | 0.00 | 0.00 | 62 | 1011.7 |
| 20260504171052 | 76 | 211 | 5.0 | 17.0 | 0.00 | 0.00 | 0.00 | 63 | 1011.7 |
| 20260504170550 | 77 | 146 | 6.0 | 12.0 | 0.00 | 0.00 | 0.00 | 64 | 1011.9 |
| 20260504151027 | 69 | 235 | 6.0 | 14.0 | 0.00 | 0.00 | 0.00 | 74 | 1012.9 |
| 20260504150526 | 69 | 216 | 6.0 | 18.0 | 0.00 | 0.00 | 0.00 | 74 | 1012.8 |
| 20260504141018 | 67 | 171 | 5.0 | 10.0 | 0.00 | 0.00 | 0.00 | 75 | 1013.1 |
| 20260504140518 | 67 | 155 | 3.0 | 9.0 | 0.00 | 0.00 | 0.00 | 75 | 1013.1 |
| 20260504130511 | 63 | 173 | 1.0 | 3.0 | 0.00 | 0.00 | 0.00 | 78 | 1013.0 |
| 20260504120105 | 61 | 188 | 0.0 | 0.0 | 0.00 | 0.00 | 0.00 | 78 | 1012.6 |
| 20260504110557 | 62 | 188 | 0.0 | 2.0 | 0.00 | 0.00 | 0.00 | 77 | 1012.5 |
| 20260504100549 | 62 | 184 | 0.0 | 3.0 | 0.00 | 0.00 | 0.00 | 75 | 1012.4 |
| 20260504081538 | 64 | 156 | 1.0 | 5.0 | 0.00 | 0.00 | 0.00 | 72 | 1013.4 |
| 20260504081037 | 64 | 171 | 1.0 | 5.0 | 0.00 | 0.00 | 0.00 | 72 | 1013.4 |
| 20260504080537 | 64 | 163 | 1.0 | 5.0 | 0.00 | 0.00 | 0.00 | 72 | 1013.5 |
| 20260504050511 | 67 | 158 | 4.0 | 11.0 | 0.00 | 0.00 | 0.00 | 66 | 1015.4 |
| 20260504050009 | 67 | 153 | 2.0 | 8.0 | 0.00 | 0.00 | 0.00 | 66 | 1015.3 |
| 20260504045509 | 67 | 159 | 2.0 | 5.0 | 0.00 | 0.00 | 0.00 | 66 | 1015.3 |
| 20260504045009 | 67 | 158 | 2.0 | 10.0 | 0.00 | 0.00 | 0.00 | 65 | 1015.3 |
| 20260504044514 | 67 | 192 | 3.0 | 10.0 | 0.00 | 0.00 | 0.00 | 65 | 1015.4 |
| 20260504044009 | 67 | 148 | 2.0 | 7.0 | 0.00 | 0.00 | 0.00 | 65 | 1015.3 |
| 20260504043508 | 67 | 136 | 2.0 | 8.0 | 0.00 | 0.00 | 0.00 | 64 | 1015.4 |
| 20260504043012 | 68 | 103 | 2.0 | 7.0 | 0.00 | 0.00 | 0.00 | 64 | 1015.5 |
| 20260504042508 | 68 | 165 | 3.0 | 9.0 | 0.00 | 0.00 | 0.00 | 63 | 1015.5 |
| 20260504042008 | 68 | 55 | 2.0 | 9.0 | 0.00 | 0.00 | 0.00 | 63 | 1015.5 |
| 20260504041509 | 68 | 153 | 2.0 | 5.0 | 0.00 | 0.00 | 0.00 | 63 | 1015.4 |
| 20260504041008 | 68 | 172 | 2.0 | 8.0 | 0.00 | 0.00 | 0.00 | 62 | 1015.5 |
| 20260504040507 | 68 | 126 | 2.0 | 8.0 | 0.00 | 0.00 | 0.00 | 62 | 1015.6 |
| 20260504040007 | 68 | 205 | 2.0 | 5.0 | 0.00 | 0.00 | 0.00 | 62 | 1015.6 |
| 20260504035508 | 68 | 156 | 1.0 | 7.0 | 0.00 | 0.00 | 0.00 | 62 | 1015.6 |
| 20260504035006 | 68 | 98 | 2.0 | 9.0 | 0.00 | 0.00 | 0.00 | 61 | 1015.6 |
| 20260504034507 | 68 | 122 | 1.0 | 9.0 | 0.00 | 0.00 | 0.00 | 61 | 1015.5 |
| 20260504034006 | 68 | 132 | 2.0 | 5.0 | 0.00 | 0.00 | 0.00 | 61 | 1015.6 |
| 20260504033505 | 68 | 105 | 1.0 | 6.0 | 0.00 | 0.00 | 0.00 | 61 | 1015.6 |
| 20260504033007 | 68 | 165 | 2.0 | 7.0 | 0.00 | 0.00 | 0.00 | 61 | 1015.6 |
| 20260504032505 | 69 | 156 | 1.0 | 4.0 | 0.00 | 0.00 | 0.00 | 61 | 1015.5 |
| 20260504032006 | 69 | 90 | 1.0 | 4.0 | 0.00 | 0.00 | 0.00 | 60 | 1015.5 |
| 20260504031506 | 69 | 166 | 1.0 | 3.0 | 0.00 | 0.00 | 0.00 | 60 | 1015.4 |
| 20260504031007 | 69 | 133 | 1.0 | 4.0 | 0.00 | 0.00 | 0.00 | 59 | 1015.3 |
| 20260504030505 | 69 | 239 | 1.0 | 5.0 | 0.00 | 0.00 | 0.00 | 59 | 1015.2 |
| 20260504030005 | 70 | 102 | 2.0 | 5.0 | 0.00 | 0.00 | 0.00 | 58 | 1015.3 |
| 20260504025505 | 70 | 121 | 1.0 | 6.0 | 0.00 | 0.00 | 0.00 | 57 | 1015.3 |
| 20260504025005 | 70 | 76 | 1.0 | 7.0 | 0.00 | 0.00 | 0.00 | 57 | 1015.3 |
| 20260504024504 | 71 | 107 | 1.0 | 7.0 | 0.00 | 0.00 | 0.00 | 56 | 1015.3 |
| 20260504024004 | 71 | 167 | 2.0 | 9.0 | 0.00 | 0.00 | 0.00 | 55 | 1015.2 |
| 20260504023504 | 71 | 47 | 2.0 | 9.0 | 0.00 | 0.00 | 0.00 | 54 | 1015.3 |
| 20260504023004 | 71 | 129 | 1.0 | 3.0 | 0.00 | 0.00 | 0.00 | 53 | 1015.2 |
| 20260504022504 | 72 | 112 | 2.0 | 5.0 | 0.00 | 0.00 | 0.00 | 52 | 1015.2 |
| 20260504022003 | 72 | 91 | 1.0 | 5.0 | 0.00 | 0.00 | 0.00 | 51 | 1015.3 |
| 20260504021510 | 72 | 165 | 0.0 | 6.0 | 0.00 | 0.00 | 0.00 | 50 | 1015.2 |
| 20260504021003 | 72 | 150 | 1.0 | 6.0 | 0.00 | 0.00 | 0.00 | 49 | 1015.1 |
| 20260504020503 | 72 | 122 | 1.0 | 6.0 | 0.00 | 0.00 | 0.00 | 49 | 1015.1 |
| 20260504020004 | 72 | 129 | 0.0 | 6.0 | 0.00 | 0.00 | 0.00 | 49 | 1015.0 |
| 20260504015503 | 72 | 94 | 0.0 | 1.0 | 0.00 | 0.00 | 0.00 | 48 | 1014.9 |
| 20260504015003 | 72 | 94 | 0.0 | 2.0 | 0.00 | 0.00 | 0.00 | 48 | 1014.9 |
| 20260504014502 | 72 | 94 | 0.0 | 2.0 | 0.00 | 0.00 | 0.00 | 48 | 1014.7 |
| 20260504014001 | 72 | 94 | 0.0 | 2.0 | 0.00 | 0.00 | 0.00 | 48 | 1014.6 |
| 20260504013501 | 73 | 94 | 0.0 | 2.0 | 0.00 | 0.00 | 0.00 | 47 | 1014.6 |
| 20260504013004 | 73 | 94 | 0.0 | 1.0 | 0.00 | 0.00 | 0.00 | 47 | 1014.6 |
| 20260504012504 | 73 | 94 | 0.0 | 1.0 | 0.00 | 0.00 | 0.00 | 47 | 1014.7 |
| 20260504012001 | 73 | 94 | 0.0 | 2.0 | 0.00 | 0.00 | 0.00 | 46 | 1014.7 |
| 20260504011501 | 73 | 94 | 0.0 | 2.0 | 0.00 | 0.00 | 0.00 | 46 | 1014.6 |
| 20260504011002 | 74 | 94 | 0.0 | 3.0 | 0.00 | 0.00 | 0.00 | 46 | 1014.4 |
| 20260504010600 | 74 | 61 | 0.0 | 3.0 | 0.00 | 0.00 | 0.00 | 45 | 1014.4 |
| 20260504010502 | 74 | 98 | 0.0 | 2.0 | 0.00 | 0.00 | 0.00 | 45 | 1014.5 |
| 20260504005600 | 74 | 98 | 0.0 | 2.0 | 0.00 | 0.00 | 0.00 | 44 | 1014.6 |
| 20260504005502 | 74 | 98 | 0.0 | 2.0 | 0.00 | 0.00 | 0.00 | 44 | 1014.6 |
| 20260504005102 | 75 | 98 | 0.0 | 2.0 | 0.00 | 0.00 | 0.00 | 43 | 1014.7 |
| 20260504004603 | 75 | 98 | 0.0 | 3.0 | 0.00 | 0.00 | 0.00 | 43 | 1014.7 |
| 20260504004058 | 75 | 78 | 0.0 | 4.0 | 0.00 | 0.00 | 0.00 | 42 | 1014.6 |
| 20260504003601 | 76 | 113 | 1.0 | 4.0 | 0.00 | 0.00 | 0.00 | 41 | 1014.6 |
| 20260504003100 | 76 | 150 | 1.0 | 5.0 | 0.00 | 0.00 | 0.00 | 41 | 1014.6 |
| 20260504002558 | 76 | 158 | 1.0 | 5.0 | 0.00 | 0.00 | 0.00 | 41 | 1014.7 |
| 20260504002058 | 76 | 98 | 0.0 | 5.0 | 0.00 | 0.00 | 0.00 | 40 | 1014.7 |
| 20260504001606 | 77 | 188 | 2.0 | 8.0 | 0.00 | 0.00 | 0.00 | 40 | 1014.7 |
| 20260504001057 | 77 | 129 | 4.0 | 8.0 | 0.00 | 0.00 | 0.00 | 39 | 1014.8 |
| 20260504000558 | 77 | 142 | 1.0 | 6.0 | 0.00 | 0.00 | 0.00 | 40 | 1014.9 |
| 20260504000058 | 77 | 155 | 2.0 | 10.0 | 0.00 | 0.00 | 0.00 | 40 | 1015.0 |
| 20260503235555 | 78 | 194 | 5.0 | 10.0 | 0.00 | 0.00 | 0.00 | 38 | 1015.0 |
| 20260503235055 | 78 | 178 | 4.0 | 11.0 | 0.00 | 0.00 | 0.00 | 39 | 1015.0 |
| 20260503234555 | 78 | 153 | 2.0 | 11.0 | 0.00 | 0.00 | 0.00 | 38 | 1015.1 |
| 20260503234054 | 78 | 157 | 3.0 | 11.0 | 0.00 | 0.00 | 0.00 | 37 | 1015.2 |
| 20260503233554 | 78 | 246 | 4.0 | 10.0 | 0.00 | 0.00 | 0.00 | 38 | 1015.2 |
| 20260503233100 | 79 | 187 | 3.0 | 10.0 | 0.00 | 0.00 | 0.00 | 37 | 1015.3 |
| 20260503232553 | 78 | 188 | 1.0 | 8.0 | 0.00 | 0.00 | 0.00 | 38 | 1015.2 |
| 20260503232053 | 78 | 196 | 2.0 | 9.0 | 0.00 | 0.00 | 0.00 | 36 | 1015.2 |
| 20260503231554 | 78 | 161 | 4.0 | 9.0 | 0.00 | 0.00 | 0.00 | 36 | 1015.3 |
| 20260503231052 | 78 | 135 | 1.0 | 10.0 | 0.00 | 0.00 | 0.00 | 37 | 1015.3 |
| 20260503230552 | 78 | 217 | 4.0 | 10.0 | 0.00 | 0.00 | 0.00 | 38 | 1015.3 |
| 20260503230052 | 78 | 168 | 6.0 | 10.0 | 0.00 | 0.00 | 0.00 | 37 | 1015.2 |
| 20260503225551 | 78 | 148 | 4.0 | 11.0 | 0.00 | 0.00 | 0.00 | 37 | 1015.2 |
| 20260503225055 | 79 | 159 | 5.0 | 11.0 | 0.00 | 0.00 | 0.00 | 36 | 1015.3 |
| 20260503224551 | 78 | 175 | 2.0 | 10.0 | 0.00 | 0.00 | 0.00 | 36 | 1015.2 |
| 20260503224050 | 78 | 207 | 4.0 | 10.0 | 0.00 | 0.00 | 0.00 | 36 | 1015.3 |
| 20260503223549 | 79 | 207 | 4.0 | 10.0 | 0.00 | 0.00 | 0.00 | 37 | 1015.4 |
| 20260503223048 | 79 | 166 | 4.0 | 10.0 | 0.00 | 0.00 | 0.00 | 36 | 1015.4 |
| 20260503222549 | 79 | 198 | 5.0 | 11.0 | 0.00 | 0.00 | 0.00 | 35 | 1015.6 |
| 20260503222046 | 79 | 182 | 3.0 | 9.0 | 0.00 | 0.00 | 0.00 | 35 | 1015.7 |
| 20260503221547 | 79 | 160 | 3.0 | 11.0 | 0.00 | 0.00 | 0.00 | 34 | 1015.7 |
| 20260503221045 | 79 | 158 | 5.0 | 13.0 | 0.00 | 0.00 | 0.00 | 36 | 1015.8 |
| 20260503220544 | 79 | 161 | 5.0 | 13.0 | 0.00 | 0.00 | 0.00 | 37 | 1015.9 |
| 20260503220043 | 79 | 148 | 5.0 | 11.0 | 0.00 | 0.00 | 0.00 | 37 | 1015.9 |
| 20260503215543 | 79 | 167 | 0.0 | 11.0 | 0.00 | 0.00 | 0.00 | 38 | 1016.0 |
| 20260503215041 | 78 | 219 | 3.0 | 11.0 | 0.00 | 0.00 | 0.00 | 39 | 1016.2 |
| 20260503214541 | 78 | 140 | 3.0 | 13.0 | 0.00 | 0.00 | 0.00 | 39 | 1016.4 |
| 20260503214040 | 79 | 215 | 4.0 | 13.0 | 0.00 | 0.00 | 0.00 | 39 | 1016.5 |
| 20260503213539 | 79 | 136 | 4.0 | 9.0 | 0.00 | 0.00 | 0.00 | 40 | 1016.4 |
| 20260503213044 | 79 | 173 | 3.0 | 9.0 | 0.00 | 0.00 | 0.00 | 40 | 1016.4 |
| 20260503212538 | 79 | 112 | 3.0 | 9.0 | 0.00 | 0.00 | 0.00 | 38 | 1016.6 |
| 20260503212038 | 79 | 136 | 1.0 | 7.0 | 0.00 | 0.00 | 0.00 | 40 | 1016.7 |
| 20260503211538 | 78 | 129 | 4.0 | 8.0 | 0.00 | 0.00 | 0.00 | 39 | 1016.7 |